createdAt,value
2022-09-06T00:01:26.055Z,100791.91
2022-09-06T00:04:31.554Z,100800.44
2022-09-06T00:07:37.345Z,100796.63
2022-09-06T00:10:40.092Z,100793.31
2022-09-06T00:13:42.125Z,100796.56
2022-09-06T00:16:44.360Z,100788.25
2022-09-06T00:19:47.259Z,100785.09
2022-09-06T00:22:49.304Z,100783.44
2022-09-06T00:25:51.824Z,100791.66
2022-09-06T00:28:55.223Z,100787.66
2022-09-06T00:32:01.339Z,100791.84
2022-09-06T00:35:04.103Z,100795.06
2022-09-06T00:38:07.011Z,100789.22
2022-09-06T00:41:11.598Z,100789.91
2022-09-06T00:44:17.329Z,100785.75
2022-09-06T00:47:21.478Z,100782.81
2022-09-06T00:50:23.665Z,100787.78
2022-09-06T00:53:26.215Z,100790.44
2022-09-06T00:56:30.122Z,100793.34
2022-09-06T00:59:34.786Z,100791.94
2022-09-06T01:02:38.031Z,100793.34
2022-09-06T01:05:42.462Z,100796.06
2022-09-06T01:08:58.438Z,100797.13
2022-09-06T01:12:13.737Z,100797.69
2022-09-06T01:15:22.901Z,100798.09
2022-09-06T01:18:34.990Z,100802.25
2022-09-06T01:21:37.362Z,100794.16
2022-09-06T01:24:51.417Z,100798.00
2022-09-06T01:27:57.390Z,100797.62
2022-09-06T01:31:09.117Z,100798.31
2022-09-06T01:34:18.219Z,100801.34
2022-09-06T01:37:23.237Z,100794.62
2022-09-06T01:40:26.545Z,100782.81
2022-09-06T01:43:36.624Z,100784.44
2022-09-06T01:46:59.745Z,100781.97
2022-09-06T01:50:01.676Z,100785.44
2022-09-06T01:53:12.405Z,100782.25
2022-09-06T01:56:22.414Z,100783.69
2022-09-06T01:59:42.437Z,100782.72
2022-09-06T02:03:03.195Z,100785.78
2022-09-06T02:06:22.005Z,100781.62
2022-09-06T02:09:26.190Z,100776.25
2022-09-06T02:12:30.170Z,100787.81
2022-09-06T02:15:39.600Z,100779.09
2022-09-06T02:18:49.338Z,100781.34
2022-09-06T02:21:54.439Z,100776.09
2022-09-06T02:25:01.172Z,100770.28
2022-09-06T02:28:07.766Z,100778.66
2022-09-06T02:31:14.239Z,100766.03
2022-09-06T02:34:18.424Z,100774.59
2022-09-06T02:37:21.344Z,100773.69
2022-09-06T02:40:24.762Z,100779.69
2022-09-06T02:43:28.026Z,100775.41
2022-09-06T02:46:33.442Z,100773.78
2022-09-06T02:49:35.683Z,100779.06
2022-09-06T02:52:38.948Z,100778.78
2022-09-06T02:55:41.365Z,100783.81
2022-09-06T02:58:45.734Z,100779.78
2022-09-06T03:01:48.457Z,100775.47
2022-09-06T03:04:50.702Z,100773.25
2022-09-06T03:07:53.303Z,100772.16
2022-09-06T03:10:59.647Z,100770.50
2022-09-06T03:14:02.416Z,100775.63
2022-09-06T03:17:06.199Z,100771.03
2022-09-06T03:20:09.802Z,100773.97
2022-09-06T03:23:12.586Z,100768.13
2022-09-06T03:26:16.137Z,100771.72
2022-09-06T03:29:18.643Z,100774.12
2022-09-06T03:32:25.881Z,100772.72
2022-09-06T03:35:29.380Z,100770.06
2022-09-06T03:38:31.781Z,100767.72
2022-09-06T03:41:34.781Z,100763.69
2022-09-06T03:44:37.798Z,100768.13
2022-09-06T03:47:40.547Z,100765.50
2022-09-06T03:50:55.054Z,100766.16
2022-09-06T03:53:57.892Z,100764.62
2022-09-06T03:57:00.114Z,100772.53
2022-09-06T04:00:06.715Z,100774.06
2022-09-06T04:03:09.613Z,100778.25
2022-09-06T04:06:14.322Z,100777.28
2022-09-06T04:09:17.680Z,100777.84
2022-09-06T04:12:24.581Z,100774.81
2022-09-06T04:15:28.484Z,100774.66
2022-09-06T04:18:30.861Z,100776.31
2022-09-06T04:21:35.528Z,100776.03
2022-09-06T04:24:39.295Z,100773.00
2022-09-06T04:27:41.909Z,100779.94
2022-09-06T04:30:45.586Z,100784.34
2022-09-06T04:33:48.813Z,100787.13
2022-09-06T04:36:50.961Z,100790.63
2022-09-06T04:39:53.527Z,100787.00
2022-09-06T04:42:58.308Z,100794.78
2022-09-06T04:46:08.603Z,100790.19
2022-09-06T04:49:12.483Z,100790.47
2022-09-06T04:52:15.438Z,100781.59
2022-09-06T04:55:18.004Z,100775.34
2022-09-06T04:58:20.813Z,100782.69
2022-09-06T05:01:23.385Z,100777.84
2022-09-06T05:04:29.025Z,100771.44
2022-09-06T05:07:32.120Z,100765.06
2022-09-06T05:10:36.044Z,100774.78
2022-09-06T05:13:38.539Z,100777.16
2022-09-06T05:16:42.986Z,100775.22
2022-09-06T05:19:50.139Z,100783.25
2022-09-06T05:22:54.507Z,100782.16
2022-09-06T05:25:56.735Z,100783.97
2022-09-06T05:29:02.935Z,100786.03
2022-09-06T05:32:05.248Z,100785.50
2022-09-06T05:35:10.980Z,100785.34
2022-09-06T05:38:16.790Z,100780.22
2022-09-06T05:41:19.991Z,100778.81
2022-09-06T05:44:23.107Z,100786.56
2022-09-06T05:47:27.177Z,100786.72
2022-09-06T05:50:29.510Z,100792.00
2022-09-06T05:53:35.547Z,100798.53
2022-09-06T05:56:38.046Z,100790.84
2022-09-06T05:59:41.025Z,100781.88
2022-09-06T06:02:43.426Z,100785.84
2022-09-06T06:05:49.512Z,100788.16
2022-09-06T06:08:53.081Z,100790.47
2022-09-06T06:11:55.749Z,100780.78
2022-09-06T06:14:58.058Z,100786.09
2022-09-06T06:18:05.263Z,100793.09
2022-09-06T06:21:28.191Z,100784.09
2022-09-06T06:24:31.973Z,100790.69
2022-09-06T06:27:37.321Z,100794.34
2022-09-06T06:30:39.799Z,100789.53
2022-09-06T06:33:46.773Z,100794.50
2022-09-06T06:36:58.213Z,100788.97
2022-09-06T06:40:00.599Z,100793.78
2022-09-06T06:43:03.486Z,100801.66
2022-09-06T06:46:08.238Z,100800.66
2022-09-06T06:49:11.266Z,100811.75
2022-09-06T06:52:16.205Z,100815.69
2022-09-06T06:55:23.646Z,100817.84
2022-09-06T06:58:27.015Z,100819.00
2022-09-06T07:01:30.618Z,100824.13
2022-09-06T07:04:34.414Z,100824.47
2022-09-06T07:07:39.436Z,100830.72
2022-09-06T07:10:44.362Z,100834.63
2022-09-06T07:13:47.246Z,100829.63
2022-09-06T07:16:52.741Z,100826.28
2022-09-06T07:20:15.258Z,100826.69
2022-09-06T07:30:07.286Z,100829.72
2022-09-06T07:33:13.680Z,100839.78
2022-09-06T07:36:16.378Z,100834.28
2022-09-06T07:39:22.463Z,100822.88
2022-09-06T07:42:25.568Z,100818.31
2022-09-06T07:45:28.820Z,100808.03
2022-09-06T07:48:35.162Z,100810.50
2022-09-06T07:51:40.053Z,100806.75
2022-09-06T07:54:43.787Z,100810.03
2022-09-06T07:57:47.066Z,100811.06
2022-09-06T08:00:50.355Z,100813.72
2022-09-06T08:03:52.859Z,100814.78
2022-09-06T08:10:19.712Z,100819.34
2022-09-06T08:13:23.189Z,100816.53
2022-09-06T08:16:28.551Z,100813.84
2022-09-06T08:19:36.445Z,100808.44
2022-09-06T08:22:39.409Z,100808.00
2022-09-06T08:25:43.711Z,100798.88
2022-09-06T08:28:46.455Z,100802.81
2022-09-06T08:31:49.582Z,100798.50
2022-09-06T08:34:57.568Z,100797.38
2022-09-06T08:37:59.773Z,100789.81
2022-09-06T08:41:08.860Z,100798.41
2022-09-06T08:47:39.506Z,100790.13
2022-09-06T08:50:47.797Z,100790.88
2022-09-06T08:53:53.325Z,100792.28
2022-09-06T08:57:01.630Z,100786.28
2022-09-06T09:00:11.066Z,100783.50
2022-09-06T09:03:25.857Z,100785.78
2022-09-06T09:06:28.917Z,100790.75
2022-09-06T09:09:34.513Z,100779.19
2022-09-06T09:12:39.634Z,100778.34
2022-09-06T09:15:43.007Z,100778.28
2022-09-06T09:18:49.118Z,100776.78
2022-09-06T09:21:52.010Z,100777.53
2022-09-06T09:24:59.678Z,100767.69
2022-09-06T09:28:04.733Z,100768.53
2022-09-06T09:31:08.082Z,100764.38
2022-09-06T09:34:31.196Z,100759.56
2022-09-06T09:37:51.260Z,100749.34
2022-09-06T09:41:07.182Z,100742.50
2022-09-06T09:44:14.495Z,100737.12
2022-09-06T09:47:29.650Z,100738.97
2022-09-06T09:50:33.973Z,100730.91
2022-09-06T09:53:49.686Z,100729.22
2022-09-06T09:56:55.453Z,100733.69
2022-09-06T10:00:06.658Z,100730.12
2022-09-06T10:03:22.778Z,100722.53
2022-09-06T10:10:09.562Z,100707.97
2022-09-06T10:13:20.744Z,100703.34
2022-09-06T10:16:43.701Z,100694.69
2022-09-06T10:19:48.259Z,100694.50
2022-09-06T10:23:17.611Z,100695.78
2022-09-06T10:26:38.546Z,100690.25
2022-09-06T10:29:49.433Z,100690.81
2022-09-06T10:33:08.889Z,100684.03
2022-09-06T10:36:15.569Z,100681.72
2022-09-06T10:39:22.141Z,100680.91
2022-09-06T10:42:46.337Z,100671.94
2022-09-06T10:45:57.430Z,100667.69
2022-09-06T10:49:19.963Z,100663.09
2022-09-06T10:52:27.561Z,100664.19
2022-09-06T10:55:32.822Z,100659.81
2022-09-06T11:02:19.647Z,100662.66
2022-09-06T11:05:45.666Z,100651.13
2022-09-06T12:55:36.036Z,100530.81
2022-09-06T12:58:45.704Z,100527.22
2022-09-06T13:23:24.337Z,100490.03
2022-09-06T13:26:40.337Z,100491.94
2022-09-06T13:29:55.526Z,100491.19
2022-09-06T13:32:58.519Z,100489.13
2022-09-06T13:36:12.672Z,100486.06
2022-09-06T13:39:29.542Z,100481.75
2022-09-06T13:42:37.142Z,100475.75
2022-09-06T13:45:40.245Z,100481.50
2022-09-06T13:48:44.779Z,100477.28
2022-09-06T13:51:51.277Z,100471.78
2022-09-06T13:54:54.377Z,100465.00
2022-09-06T13:57:59.253Z,100457.28
2022-09-06T14:01:03.803Z,100456.66
2022-09-06T14:04:08.070Z,100459.75
2022-09-06T14:07:14.048Z,100455.53
2022-09-06T14:10:16.808Z,100455.94
2022-09-06T14:13:19.810Z,100450.78
2022-09-06T14:16:24.534Z,100449.97
2022-09-06T14:19:26.824Z,100434.28
2022-09-06T14:22:29.399Z,100435.97
2022-09-06T14:25:34.635Z,100438.47
2022-09-06T14:28:38.328Z,100435.19
2022-09-06T14:31:41.613Z,100431.91
2022-09-06T14:34:51.311Z,100440.19
2022-09-06T14:37:54.605Z,100438.31
2022-09-06T14:41:02.742Z,100435.28
2022-09-06T14:44:07.520Z,100430.75
2022-09-06T14:47:10.263Z,100428.91
2022-09-06T14:50:14.154Z,100432.59
2022-09-06T14:53:38.869Z,100428.91
2022-09-06T14:56:47.968Z,100429.72
2022-09-06T14:59:53.444Z,100428.28
2022-09-06T15:02:57.326Z,100428.66
2022-09-06T15:05:59.499Z,100437.31
2022-09-06T15:09:02.428Z,100434.25
2022-09-06T15:12:04.763Z,100439.16
2022-09-06T15:15:08.258Z,100436.91
2022-09-06T15:18:14.695Z,100433.50
2022-09-06T15:21:19.613Z,100437.09
2022-09-06T15:24:22.244Z,100445.56
2022-09-06T15:27:24.914Z,100457.66
2022-09-06T15:30:27.956Z,100462.41
2022-09-06T15:33:31.659Z,100461.97
2022-09-06T15:36:33.938Z,100454.97
2022-09-06T15:39:36.509Z,100461.16
2022-09-06T15:42:41.964Z,100449.22
2022-09-06T15:45:48.620Z,100445.59
2022-09-06T15:48:54.395Z,100452.16
2022-09-06T15:51:58.708Z,100446.78
2022-09-06T15:55:19.307Z,100445.91
2022-09-06T15:58:22.533Z,100436.84
2022-09-06T16:01:26.110Z,100441.91
2022-09-06T16:04:29.309Z,100443.31
2022-09-06T16:07:32.444Z,100450.22
2022-09-06T16:10:39.089Z,100452.88
2022-09-06T16:13:42.635Z,100463.03
2022-09-06T16:16:44.938Z,100451.66
2022-09-06T16:19:47.420Z,100460.16
2022-09-06T16:22:51.227Z,100462.53
2022-09-06T16:25:55.252Z,100466.00
2022-09-06T16:28:58.038Z,100467.84
2022-09-06T16:32:00.837Z,100481.84
2022-09-06T16:35:07.007Z,100480.22
2022-09-06T16:38:09.676Z,100479.94
2022-09-06T16:41:29.502Z,100471.47
2022-09-06T16:44:32.486Z,100459.56
2022-09-06T16:47:35.669Z,100467.22
2022-09-06T16:50:38.739Z,100467.41
2022-09-06T16:53:42.029Z,100462.28
2022-09-06T16:56:46.381Z,100455.59
2022-09-06T16:59:49.414Z,100449.91
2022-09-06T17:02:52.713Z,100444.22
2022-09-06T17:05:56.077Z,100453.94
2022-09-06T17:08:59.701Z,100458.97
2022-09-06T17:12:02.976Z,100459.62
2022-09-06T17:15:05.885Z,100468.63
2022-09-06T17:18:09.436Z,100473.56
2022-09-06T17:21:12.225Z,100473.91
2022-09-06T17:24:14.944Z,100480.13
2022-09-06T17:27:17.519Z,100488.84
2022-09-06T17:30:22.134Z,100486.91
2022-09-06T17:33:26.024Z,100494.37
2022-09-06T17:36:30.602Z,100503.72
2022-09-06T17:39:38.954Z,100505.59
2022-09-06T17:42:45.278Z,100502.31
2022-09-06T17:45:47.975Z,100507.91
2022-09-06T17:48:50.143Z,100501.47
2022-09-06T17:51:53.445Z,100499.75
2022-09-06T17:54:59.314Z,100494.50
2022-09-06T17:58:01.625Z,100494.56
2022-09-06T18:01:05.122Z,100494.25
2022-09-06T18:04:08.173Z,100493.12
2022-09-06T18:07:10.336Z,100490.03
2022-09-06T18:10:16.505Z,100497.03
2022-09-06T18:13:19.645Z,100490.22
2022-09-06T18:16:22.938Z,100483.94
2022-09-06T18:19:26.390Z,100483.00
2022-09-06T18:22:29.907Z,100490.34
2022-09-06T18:25:32.786Z,100491.03
2022-09-06T18:28:38.796Z,100485.75
2022-09-06T18:31:43.644Z,100498.22
2022-09-06T18:34:46.598Z,100496.59
2022-09-06T18:37:49.462Z,100502.91
2022-09-06T18:40:53.684Z,100499.56
2022-09-06T18:43:56.759Z,100504.38
2022-09-06T18:47:01.611Z,100502.84
2022-09-06T18:50:05.677Z,100506.44
2022-09-06T18:53:08.211Z,100508.09
2022-09-06T18:56:18.884Z,100514.00
2022-09-06T18:59:25.457Z,100506.06
2022-09-06T19:02:29.089Z,100504.56
2022-09-06T19:05:31.896Z,100498.75
2022-09-06T19:08:34.754Z,100492.69
2022-09-06T19:11:37.851Z,100498.69
2022-09-06T19:14:40.595Z,100504.03
2022-09-06T19:17:43.606Z,100503.88
2022-09-06T19:20:58.740Z,100503.22
2022-09-06T19:24:03.259Z,100504.06
2022-09-06T19:27:06.183Z,100504.09
2022-09-06T19:30:11.148Z,100499.81
2022-09-06T19:33:15.706Z,100504.09
2022-09-06T19:36:18.485Z,100502.28
2022-09-06T19:39:22.120Z,100496.16
2022-09-06T19:42:24.611Z,100506.62
2022-09-06T19:45:31.146Z,100494.69
2022-09-06T19:48:44.614Z,100488.41
2022-09-06T19:51:59.318Z,100494.53
2022-09-06T19:55:02.848Z,100491.06
2022-09-06T19:58:08.689Z,100484.78
2022-09-06T20:01:12.468Z,100485.09
2022-09-06T20:04:15.403Z,100479.31
2022-09-06T20:07:20.214Z,100483.44
2022-09-06T20:10:23.618Z,100476.81
2022-09-06T20:13:27.942Z,100474.00
2022-09-06T20:16:35.311Z,100471.34
2022-09-06T20:19:41.817Z,100468.84
2022-09-06T20:22:47.497Z,100474.00
2022-09-06T20:25:58.422Z,100472.00
2022-09-06T20:29:02.300Z,100476.09
2022-09-06T20:32:06.029Z,100480.22
2022-09-06T20:35:13.576Z,100485.00
2022-09-06T20:38:16.951Z,100478.72
2022-09-06T20:41:20.829Z,100480.22
2022-09-06T20:44:23.372Z,100473.75
2022-09-06T20:47:26.753Z,100469.81
2022-09-06T20:50:29.231Z,100463.69
2022-09-06T20:53:35.018Z,100474.44
2022-09-06T20:56:42.194Z,100486.03
2022-09-06T20:59:45.026Z,100484.19
2022-09-06T21:02:47.108Z,100481.88
2022-09-06T21:05:49.699Z,100479.88
2022-09-06T21:08:53.376Z,100478.91
2022-09-06T21:11:58.062Z,100477.22
2022-09-06T21:15:01.747Z,100475.44
2022-09-06T21:18:09.162Z,100475.94
2022-09-06T21:21:12.806Z,100472.66
2022-09-06T21:24:16.720Z,100472.03
2022-09-06T21:27:20.306Z,100469.88
2022-09-06T21:30:23.042Z,100463.75
2022-09-06T21:33:27.021Z,100465.56
2022-09-06T21:36:42.161Z,100464.56
2022-09-06T21:39:44.668Z,100459.28
2022-09-06T21:42:48.341Z,100467.87
2022-09-06T21:45:51.141Z,100459.59
2022-09-06T21:48:54.361Z,100458.94
2022-09-06T21:51:57.988Z,100458.59
2022-09-06T21:55:05.535Z,100460.75
2022-09-06T21:58:09.257Z,100457.28
2022-09-06T22:01:12.766Z,100443.87
2022-09-06T22:04:16.080Z,100446.97
2022-09-06T22:07:21.402Z,100453.91
2022-09-06T22:10:25.276Z,100444.50
2022-09-06T22:13:28.500Z,100454.41
2022-09-06T22:16:33.226Z,100457.06
2022-09-06T22:19:36.169Z,100458.06
2022-09-06T22:22:38.908Z,100450.75
2022-09-06T22:25:43.660Z,100454.03
2022-09-06T22:28:46.768Z,100456.00
2022-09-06T22:31:50.169Z,100455.69
2022-09-06T22:35:01.104Z,100449.09
2022-09-06T22:38:05.540Z,100456.34
2022-09-06T22:41:10.284Z,100459.78
2022-09-06T22:44:14.507Z,100442.94
2022-09-06T22:47:16.602Z,100452.00
2022-09-06T22:50:19.155Z,100451.34
2022-09-06T22:53:21.760Z,100450.34
2022-09-06T22:56:25.931Z,100446.50
2022-09-06T22:59:28.625Z,100437.41
2022-09-06T23:02:31.407Z,100438.22
2022-09-06T23:05:34.321Z,100439.56
2022-09-06T23:08:38.031Z,100437.19
2022-09-06T23:11:41.019Z,100443.31
2022-09-06T23:14:45.229Z,100433.16
2022-09-06T23:17:47.600Z,100431.50
2022-09-06T23:20:50.805Z,100428.22
2022-09-06T23:23:58.584Z,100430.84
2022-09-06T23:27:02.424Z,100436.72
2022-09-06T23:30:06.325Z,100435.22
2022-09-06T23:33:14.564Z,100432.72
2022-09-06T23:36:16.511Z,100439.78
2022-09-06T23:39:18.861Z,100427.06
2022-09-06T23:42:22.540Z,100427.84
2022-09-06T23:45:25.055Z,100420.37
2022-09-06T23:48:28.002Z,100424.31
2022-09-06T23:51:30.914Z,100420.69
2022-09-06T23:54:33.539Z,100422.03
2022-09-06T23:57:37.657Z,100429.59
